Time;durP1;ratioP1;P1;durP2;ratioP2;P2;SDS_P1;SDS_P2;PMS_P1;PMS_P2;Temp;Humidity;BMP_temperature;BMP_pressure;BME280_temperature;BME280_humidity;BME280_pressure;Samples;Min_cycle;Max_cycle;Signal;HPM_P1;HPM_P2
2021/10/14 04:30:41;;;;;;;4.83;2.57;;;2.70;99.90;;;;;;6021955;23;20345;-72
2021/10/14 04:33:06;;;;;;;3.67;3.37;;;2.80;99.90;;;;;;4909258;29;20915;-75
2021/10/14 04:35:32;;;;;;;3.80;3.10;;;2.80;99.90;;;;;;4914862;29;20476;-75
2021/10/14 04:37:57;;;;;;;6.13;3.27;;;2.80;99.90;;;;;;4918533;29;20269;-76
2021/10/14 04:40:23;;;;;;;3.70;3.00;;;2.80;99.90;;;;;;4919594;29;20183;-76
2021/10/14 04:42:48;;;;;;;3.23;2.93;;;2.90;99.90;;;;;;4917316;29;20213;-76
2021/10/14 04:45:16;;;;;;;3.17;2.63;;;2.90;99.90;;;;;;4918566;29;20271;-75
2021/10/14 04:47:41;;;;;;;3.73;2.90;;;3.00;99.90;;;;;;4918428;29;20903;-76
2021/10/14 04:50:07;;;;;;;4.07;3.43;;;3.00;99.90;;;;;;4918398;29;20426;-76
2021/10/14 04:52:33;;;;;;;4.80;2.80;;;3.10;99.90;;;;;;4917838;29;20244;-75
2021/10/14 04:54:58;;;;;;;6.90;3.20;;;3.10;99.90;;;;;;4918427;29;20779;-75
2021/10/14 04:57:24;;;;;;;3.40;3.10;;;3.10;99.90;;;;;;4918307;29;20615;-75
2021/10/14 04:59:49;;;;;;;3.10;2.80;;;3.20;99.90;;;;;;4918505;29;20737;-76
2021/10/14 05:02:15;;;;;;;3.53;3.13;;;3.20;99.90;;;;;;4917547;29;20206;-76
2021/10/14 05:04:40;;;;;;;3.83;2.50;;;3.20;99.90;;;;;;4917365;29;20192;-75
2021/10/14 05:07:06;;;;;;;3.23;2.93;;;3.30;99.90;;;;;;4918111;29;20259;-75
2021/10/14 05:09:32;;;;;;;8.50;2.80;;;3.30;99.90;;;;;;4918305;29;20170;-76
2021/10/14 05:11:58;;;;;;;3.30;3.00;;;3.30;99.90;;;;;;4918311;29;20684;-76
2021/10/14 05:14:24;;;;;;;6.57;4.17;;;3.40;99.90;;;;;;4918016;29;20166;-76
2021/10/14 05:16:49;;;;;;;5.20;3.30;;;3.40;99.90;;;;;;4918292;29;20437;-76
2021/10/14 05:19:15;;;;;;;5.93;2.67;;;3.50;99.90;;;;;;4917942;29;20258;-75
2021/10/14 05:21:40;;;;;;;3.80;3.17;;;3.50;99.90;;;;;;4918336;29;20267;-75
2021/10/14 05:24:06;;;;;;;3.10;2.70;;;3.50;99.90;;;;;;4918035;29;20550;-76
2021/10/14 05:26:32;;;;;;;6.17;3.87;;;3.60;99.90;;;;;;4918064;29;20211;-76
2021/10/14 05:28:58;;;;;;;2.90;2.67;;;3.60;99.90;;;;;;4917691;29;20178;-75
2021/10/14 05:31:25;;;;;;;3.87;3.10;;;3.70;99.90;;;;;;4917605;29;20241;-75
2021/10/14 05:33:50;;;;;;;4.37;3.20;;;3.70;99.90;;;;;;4917869;29;20484;-74
2021/10/14 05:36:17;;;;;;;6.50;3.63;;;3.70;99.90;;;;;;4917864;29;20920;-76
2021/10/14 05:38:44;;;;;;;4.67;3.10;;;3.80;99.90;;;;;;4917835;29;20427;-76
2021/10/14 05:41:10;;;;;;;3.60;2.87;;;3.90;99.90;;;;;;4917817;29;20210;-76
2021/10/14 05:43:35;;;;;;;3.60;2.90;;;3.90;99.90;;;;;;4917960;29;20797;-76
2021/10/14 05:46:01;;;;;;;4.00;3.17;;;4.00;99.90;;;;;;4917707;29;20476;-76
2021/10/14 05:48:27;;;;;;;4.53;3.10;;;4.00;99.90;;;;;;4917476;29;20650;-76
2021/10/14 05:50:52;;;;;;;4.10;2.93;;;4.10;99.90;;;;;;4926777;29;20205;-75
2021/10/14 05:53:18;;;;;;;4.23;3.47;;;4.10;99.90;;;;;;4926560;29;20196;-76
2021/10/14 05:55:45;;;;;;;6.17;3.60;;;4.10;99.90;;;;;;4917493;29;20183;-77
2021/10/14 05:58:11;;;;;;;13.50;4.40;;;4.20;99.90;;;;;;4917127;29;20180;-76
2021/10/14 06:00:36;;;;;;;15.47;3.80;;;4.20;99.90;;;;;;4917355;29;20461;-75
2021/10/14 06:03:02;;;;;;;4.33;3.03;;;4.30;99.90;;;;;;4917043;29;20262;-76
2021/10/14 06:05:27;;;;;;;4.70;4.07;;;4.30;99.90;;;;;;4917509;29;20183;-76
2021/10/14 06:07:53;;;;;;;6.27;3.80;;;4.30;99.90;;;;;;4916759;29;20215;-76
2021/10/14 06:10:18;;;;;;;7.87;3.47;;;4.40;99.90;;;;;;4917424;29;20183;-77
2021/10/14 06:12:44;;;;;;;6.10;3.30;;;4.40;99.90;;;;;;4916862;29;20251;-75
2021/10/14 06:15:10;;;;;;;5.70;3.70;;;4.50;99.90;;;;;;4916954;29;20234;-76
2021/10/14 06:17:35;;;;;;;5.07;3.60;;;4.50;99.90;;;;;;4916848;29;20224;-76
2021/10/14 06:20:03;;;;;;;3.30;3.00;;;4.60;99.90;;;;;;4913631;29;20191;-76
2021/10/14 06:22:28;;;;;;;6.47;3.67;;;4.70;99.90;;;;;;4915200;29;20215;-75
2021/10/14 06:24:54;;;;;;;5.47;3.60;;;4.80;99.90;;;;;;4916525;29;20494;-75
2021/10/14 06:27:19;;;;;;;4.53;3.20;;;4.90;99.90;;;;;;4917618;29;20705;-76
2021/10/14 06:29:45;;;;;;;6.30;4.07;;;5.00;99.90;;;;;;4916580;29;20181;-77
2021/10/14 06:32:10;;;;;;;4.47;3.97;;;5.10;99.90;;;;;;4916704;29;20651;-75
2021/10/14 06:34:36;;;;;;;7.50;4.00;;;5.20;99.90;;;;;;4916752;29;20177;-76
2021/10/14 06:37:02;;;;;;;10.10;3.97;;;5.20;99.90;;;;;;4916808;29;20190;-76
2021/10/14 06:39:27;;;;;;;5.20;3.60;;;5.40;99.90;;;;;;4916037;29;20185;-76
2021/10/14 06:41:56;;;;;;;4.73;3.63;;;5.50;99.90;;;;;;4916098;29;20200;-75
2021/10/14 06:44:22;;;;;;;7.80;4.37;;;5.60;99.90;;;;;;4916266;29;20189;-76
2021/10/14 06:46:48;;;;;;;5.10;3.60;;;5.80;99.90;;;;;;4916311;29;20449;-76
2021/10/14 06:49:13;;;;;;;10.57;5.47;;;6.00;99.90;;;;;;4915391;29;20788;-76
2021/10/14 06:51:39;;;;;;;9.53;3.47;;;6.30;99.90;;;;;;4916050;29;20409;-76
2021/10/14 06:54:05;;;;;;;5.27;4.10;;;6.50;99.90;;;;;;4916413;29;20184;-76
2021/10/14 06:56:30;;;;;;;4.33;3.23;;;6.60;99.90;;;;;;4916448;29;20229;-76
2021/10/14 06:58:56;;;;;;;7.27;3.77;;;6.90;99.90;;;;;;4915294;29;20189;-76
2021/10/14 07:01:21;;;;;;;4.00;3.60;;;7.40;99.90;;;;;;4930751;29;20301;-76
2021/10/14 07:03:47;;;;;;;3.80;3.50;;;7.80;99.90;;;;;;4916046;29;20333;-76
2021/10/14 07:06:14;;;;;;;7.27;3.43;;;8.10;99.90;;;;;;4914636;29;20214;-76
2021/10/14 07:08:39;;;;;;;4.93;3.03;;;8.40;99.90;;;;;;4915461;29;20463;-76
2021/10/14 07:11:05;;;;;;;7.27;3.10;;;8.70;99.90;;;;;;4915852;29;20434;-76
2021/10/14 07:13:31;;;;;;;4.27;3.83;;;8.80;99.90;;;;;;4914779;29;20621;-76
2021/10/14 07:15:58;;;;;;;4.17;3.07;;;8.70;99.90;;;;;;4915926;29;20726;-76
2021/10/14 07:18:23;;;;;;;3.50;3.20;;;8.70;99.90;;;;;;4915532;29;20654;-76
2021/10/14 07:20:49;;;;;;;4.43;4.03;;;8.50;99.90;;;;;;4915926;29;20459;-76
2021/10/14 07:23:16;;;;;;;6.20;4.50;;;8.50;99.90;;;;;;4914805;29;20180;-76
2021/10/14 07:25:43;;;;;;;4.27;3.43;;;8.40;99.90;;;;;;4915977;29;20179;-76
2021/10/14 07:28:09;;;;;;;6.07;4.23;;;8.40;99.90;;;;;;4915210;29;20476;-75
2021/10/14 07:30:36;;;;;;;5.37;4.40;;;8.50;99.90;;;;;;4915586;29;20395;-75
2021/10/14 07:33:04;;;;;;;5.20;4.20;;;8.50;99.90;;;;;;4915627;29;20827;-76
2021/10/14 07:35:35;;;;;;;4.83;4.27;;;8.50;99.90;;;;;;4915863;29;20961;-75
2021/10/14 07:38:09;;;;;;;9.67;4.00;;;8.60;99.90;;;;;;4915117;29;20449;-75
2021/10/14 07:40:36;;;;;;;6.10;3.53;;;8.70;99.90;;;;;;4915481;29;20951;-75
2021/10/14 07:43:08;;;;;;;18.87;4.33;;;8.90;99.90;;;;;;4915513;29;20497;-75
2021/10/14 07:45:33;;;;;;;9.57;3.60;;;9.10;99.90;;;;;;4915598;29;20780;-75
2021/10/14 07:48:00;;;;;;;4.17;3.47;;;9.20;99.90;;;;;;4914843;29;20552;-74
2021/10/14 07:50:26;;;;;;;4.90;3.70;;;9.30;99.90;;;;;;4915410;29;20183;-74
2021/10/14 07:52:52;;;;;;;9.53;3.70;;;9.40;99.90;;;;;;4915141;29;20441;-74
2021/10/14 07:55:17;;;;;;;8.80;3.47;;;9.50;99.90;;;;;;4914312;29;20950;-76
2021/10/14 07:57:44;;;;;;;7.00;3.30;;;9.60;99.90;;;;;;4914646;29;20185;-72
2021/10/14 08:00:11;;;;;;;3.53;2.67;;;9.80;99.90;;;;;;4914918;29;20183;-72
2021/10/14 08:02:37;;;;;;;6.10;3.50;;;10.10;99.90;;;;;;4914993;29;20528;-73
2021/10/14 08:05:03;;;;;;;4.97;2.50;;;10.60;99.90;;;;;;4915159;29;20430;-74
2021/10/14 08:07:29;;;;;;;5.13;2.67;;;11.30;99.90;;;;;;4914853;29;20463;-71
2021/10/14 08:09:55;;;;;;;2.87;2.40;;;11.80;99.90;;;;;;4914712;29;20173;-72
2021/10/14 08:12:21;;;;;;;5.37;2.67;;;12.50;99.90;;;;;;4919052;29;20507;-71
2021/10/14 08:14:47;;;;;;;3.47;2.80;;;13.00;99.90;;;;;;4919076;29;20177;-72
2021/10/14 08:17:13;;;;;;;7.80;2.80;;;13.10;99.90;;;;;;4918208;29;20872;-72
2021/10/14 08:19:38;;;;;;;3.40;2.27;;;13.20;99.90;;;;;;4918582;29;20198;-75
2021/10/14 08:22:04;;;;;;;3.20;2.30;;;12.90;99.90;;;;;;4918673;29;20208;-76
2021/10/14 08:24:29;;;;;;;7.43;2.57;;;13.00;99.90;;;;;;4918998;29;20193;-75
2021/10/14 08:26:55;;;;;;;5.10;2.17;;;12.70;99.90;;;;;;4919024;29;20741;-76
2021/10/14 08:29:21;;;;;;;4.57;2.57;;;12.80;99.90;;;;;;4918258;29;20667;-76
2021/10/14 08:31:46;;;;;;;5.37;2.87;;;12.80;99.90;;;;;;4918631;29;20643;-76
2021/10/14 08:34:12;;;;;;;2.97;2.43;;;13.00;99.90;;;;;;4908375;29;20273;-76
2021/10/14 08:36:40;;;;;;;3.27;2.90;;;13.30;99.90;;;;;;4912248;29;20222;-76
2021/10/14 08:39:06;;;;;;;3.73;2.60;;;13.70;99.90;;;;;;4917778;29;20248;-76
2021/10/14 08:41:31;;;;;;;3.17;2.30;;;14.00;99.90;;;;;;4917079;29;20449;-77
2021/10/14 08:43:59;;;;;;;6.30;2.17;;;14.40;99.90;;;;;;4918330;29;20222;-73
2021/10/14 08:46:24;;;;;;;5.60;2.50;;;14.80;99.90;;;;;;4916315;29;20304;-72
2021/10/14 08:48:50;;;;;;;6.03;2.13;;;14.90;99.90;;;;;;4917956;29;20517;-72
2021/10/14 08:51:16;;;;;;;3.60;2.70;;;15.30;99.90;;;;;;4917728;29;20206;-72
2021/10/14 08:53:41;;;;;;;6.70;2.57;;;15.30;99.90;;;;;;4917860;29;20437;-73
2021/10/14 08:56:07;;;;;;;1.90;1.80;;;15.30;99.90;;;;;;4917947;29;20202;-72
2021/10/14 08:58:33;;;;;;;2.43;1.90;;;15.70;99.90;;;;;;4917039;29;20197;-72
2021/10/14 09:01:09;;;;;;;2.40;1.93;;;15.90;99.90;;;;;;4917857;29;20233;-72
2021/10/14 09:03:39;;;;;;;3.93;2.67;;;16.20;99.90;;;;;;4917827;29;20429;-72
2021/10/14 09:06:11;;;;;;;4.77;2.43;;;16.20;99.90;;;;;;4917442;29;20464;-73
2021/10/14 09:08:44;;;;;;;3.00;2.60;;;16.20;99.90;;;;;;4916700;29;20438;-72
2021/10/14 09:11:10;;;;;;;7.17;2.50;;;16.20;99.90;;;;;;4917711;29;20438;-70
2021/10/14 09:13:37;;;;;;;4.47;2.93;;;16.30;99.90;;;;;;4917608;29;20449;-71
2021/10/14 09:16:24;;;;;;;3.53;2.50;;;16.30;99.90;;;;;;4912098;29;20960;-72
2021/10/14 09:18:51;;;;;;;4.70;1.80;;;16.00;99.90;;;;;;4897630;29;20430;-71
2021/10/14 09:21:28;;;;;;;2.00;1.90;;;15.90;99.90;;;;;;4897564;29;20459;-72
2021/10/14 09:23:55;;;;;;;3.97;2.70;;;15.70;99.90;;;;;;4898358;29;20426;-71
2021/10/14 09:26:35;;;;;;;3.93;1.80;;;15.90;99.90;;;;;;4898463;29;20445;-72
2021/10/14 09:29:11;;;;;;;2.17;1.80;;;16.20;99.90;;;;;;4900922;29;20465;-72
2021/10/14 09:31:48;;;;;;;3.00;1.90;;;16.60;99.90;;;;;;4916980;29;21133;-72
2021/10/14 09:34:25;;;;;;;4.10;2.07;;;16.90;99.90;;;;;;4917019;29;20432;-72
2021/10/14 09:36:51;;;;;;;5.43;2.17;;;17.20;99.90;;;;;;4917000;29;20434;-72
2021/10/14 09:39:17;;;;;;;2.73;2.17;;;17.40;99.90;;;;;;4916047;29;20438;-71
2021/10/14 09:41:43;;;;;;;6.13;1.83;;;17.70;99.90;;;;;;4916833;29;20606;-71
2021/10/14 09:44:14;;;;;;;1.83;1.53;;;18.10;99.90;;;;;;4917131;29;20635;-72
2021/10/14 09:46:48;;;;;;;2.67;1.60;;;18.30;99.90;;;;;;4906920;29;20474;-71
2021/10/14 09:49:23;;;;;;;4.30;1.17;;;18.40;99.90;;;;;;4897184;29;20423;-71
2021/10/14 09:51:49;;;;;;;2.60;1.20;;;18.30;99.90;;;;;;4897948;29;20827;-72
2021/10/14 09:54:14;;;;;;;2.27;1.80;;;18.60;99.90;;;;;;4897430;29;20520;-73
2021/10/14 09:56:40;;;;;;;1.80;1.50;;;18.80;99.90;;;;;;4897951;29;20532;-72
2021/10/14 09:59:06;;;;;;;2.07;1.87;;;18.70;99.90;;;;;;4897186;29;20206;-71
2021/10/14 10:01:34;;;;;;;2.73;1.43;;;18.60;99.90;;;;;;4897371;29;20258;-72
2021/10/14 10:04:01;;;;;;;1.73;1.47;;;18.70;99.90;;;;;;4896494;29;20735;-72
2021/10/14 10:06:29;;;;;;;3.47;1.77;;;18.70;99.90;;;;;;4896741;29;20885;-72
2021/10/14 10:08:59;;;;;;;2.60;1.47;;;18.50;99.90;;;;;;4897267;29;20474;-72
2021/10/14 10:11:26;;;;;;;2.03;1.40;;;18.30;99.90;;;;;;4896555;29;20447;-71
2021/10/14 10:13:55;;;;;;;2.70;1.80;;;18.40;99.90;;;;;;4898992;29;21157;-73
2021/10/14 10:16:22;;;;;;;3.30;1.23;;;18.80;99.90;;;;;;4916417;29;20479;-72
2021/10/14 10:18:59;;;;;;;1.87;1.70;;;18.90;99.90;;;;;;4933513;29;20441;-73
2021/10/14 10:21:45;;;;;;;2.53;2.27;;;19.00;99.90;;;;;;4934573;29;20437;-72
2021/10/14 10:24:22;;;;;;;1.90;1.57;;;19.00;99.90;;;;;;4915889;29;20485;-73
2021/10/14 10:26:49;;;;;;;4.60;2.13;;;19.00;99.90;;;;;;4916108;29;20461;-73
2021/10/14 10:29:15;;;;;;;1.60;1.50;;;19.00;99.90;;;;;;4910117;29;20467;-73
2021/10/14 10:31:51;;;;;;;1.83;1.70;;;19.10;99.90;;;;;;4908488;29;21017;-73
2021/10/14 10:34:29;;;;;;;2.10;1.90;;;19.30;99.90;;;;;;4908424;29;20202;-73
2021/10/14 10:36:55;;;;;;;4.17;2.10;;;19.00;99.90;;;;;;4910473;29;20421;-73
2021/10/14 10:39:50;;;;;;;7.73;2.03;;;19.10;99.90;;;;;;4915946;29;20429;-73
2021/10/14 10:42:31;;;;;;;4.37;2.80;;;19.10;99.90;;;;;;4916211;29;20228;-73
2021/10/14 10:45:11;;;;;;;4.23;1.80;;;19.20;99.90;;;;;;4916470;29;20406;-72
2021/10/14 10:47:37;;;;;;;4.83;2.63;;;18.90;99.90;;;;;;4916124;29;20473;-72
2021/10/14 10:50:05;;;;;;;4.03;2.43;;;18.70;99.90;;;;;;4916000;29;20453;-71
2021/10/14 10:52:35;;;;;;;3.90;2.70;;;18.30;99.90;;;;;;4915966;29;20449;-72
2021/10/14 10:55:11;;;;;;;2.47;2.27;;;18.40;99.90;;;;;;4916159;29;20436;-72
2021/10/14 10:57:51;;;;;;;4.27;2.40;;;18.40;99.90;;;;;;4916283;29;21083;-73
2021/10/14 11:00:18;;;;;;;2.83;2.63;;;18.40;99.90;;;;;;4915943;29;20418;-73
2021/10/14 11:02:44;;;;;;;3.33;3.00;;;18.30;99.90;;;;;;4915661;29;20491;-72
2021/10/14 11:05:11;;;;;;;4.37;3.40;;;18.00;99.90;;;;;;4915990;29;20410;-72
2021/10/14 11:07:38;;;;;;;2.90;2.70;;;18.00;99.90;;;;;;4915744;29;20525;-71
2021/10/14 11:10:05;;;;;;;4.60;2.37;;;17.60;99.90;;;;;;4915600;29;20414;-71
2021/10/14 11:12:31;;;;;;;6.80;3.20;;;17.60;99.90;;;;;;4915635;29;20438;-72
2021/10/14 11:14:56;;;;;;;5.03;2.67;;;17.60;99.90;;;;;;4915669;29;20422;-72
2021/10/14 11:17:26;;;;;;;2.87;2.47;;;17.80;99.90;;;;;;4915641;29;20429;-71
2021/10/14 11:20:07;;;;;;;2.50;2.20;;;17.70;99.90;;;;;;4915342;29;20182;-72
2021/10/14 11:22:33;;;;;;;8.00;2.80;;;18.10;99.90;;;;;;4915552;29;20489;-72
2021/10/14 11:25:03;;;;;;;4.43;2.60;;;18.10;99.90;;;;;;4915531;29;20414;-72
2021/10/14 11:27:29;;;;;;;4.20;1.93;;;18.20;99.90;;;;;;4915425;29;20466;-73
2021/10/14 11:30:17;;;;;;;3.23;1.90;;;18.20;99.90;;;;;;4915078;29;20419;-72
2021/10/14 11:32:57;;;;;;;10.43;2.83;;;18.20;99.90;;;;;;4915215;29;20513;-71
2021/10/14 11:35:23;;;;;;;1.80;1.70;;;18.40;99.90;;;;;;4915613;29;20920;-72
2021/10/14 11:37:49;;;;;;;1.67;1.57;;;18.30;99.90;;;;;;4915234;29;20414;-72
2021/10/14 11:40:32;;;;;;;4.33;2.17;;;18.30;99.90;;;;;;4915268;29;20493;-72
2021/10/14 11:42:58;;;;;;;5.33;1.80;;;18.70;99.90;;;;;;4912401;29;20186;-72
2021/10/14 11:45:23;;;;;;;3.00;1.67;;;18.70;99.90;;;;;;4913943;29;20501;-72
2021/10/14 11:47:49;;;;;;;3.07;2.10;;;18.50;99.90;;;;;;4914606;29;20969;-72
2021/10/14 11:50:14;;;;;;;4.83;2.03;;;18.60;99.90;;;;;;4910802;29;20185;-71
2021/10/14 11:52:40;;;;;;;1.97;1.87;;;18.50;99.90;;;;;;4910102;29;20210;-71
2021/10/14 11:55:07;;;;;;;7.13;1.70;;;18.30;99.90;;;;;;4910272;29;20197;-71
2021/10/14 11:57:33;;;;;;;3.77;2.30;;;17.90;99.90;;;;;;4911355;29;20271;-72
2021/10/14 12:00:00;;;;;;;3.93;2.07;;;17.70;99.90;;;;;;4904417;29;20426;-72
2021/10/14 12:02:27;;;;;;;3.90;2.57;;;17.60;99.90;;;;;;4912250;29;20485;-71
2021/10/14 12:04:53;;;;;;;3.30;2.33;;;17.60;99.90;;;;;;4912031;29;20525;-71
2021/10/14 12:07:29;;;;;;;6.83;2.20;;;17.50;99.90;;;;;;4911440;29;20917;-71
2021/10/14 12:09:56;;;;;;;1.97;1.87;;;17.50;99.90;;;;;;4910857;29;20425;-71
2021/10/14 12:12:29;;;;;;;4.30;2.47;;;17.50;99.90;;;;;;4911905;29;20449;-71
2021/10/14 12:15:06;;;;;;;4.27;2.00;;;17.50;99.90;;;;;;4910691;29;20450;-71
2021/10/14 12:17:39;;;;;;;4.27;1.97;;;17.50;99.90;;;;;;4909058;29;20433;-71
2021/10/14 12:20:17;;;;;;;11.70;2.43;;;17.10;99.90;;;;;;4910286;29;20441;-70
2021/10/14 12:22:45;;;;;;;4.13;1.87;;;17.00;99.90;;;;;;4911865;29;20963;-71
2021/10/14 12:25:11;;;;;;;2.93;2.30;;;17.00;99.90;;;;;;4912069;29;20421;-71
2021/10/14 12:27:48;;;;;;;2.37;1.70;;;16.70;99.90;;;;;;4911402;29;20476;-71
2021/10/14 12:30:39;;;;;;;4.20;1.70;;;16.60;99.90;;;;;;4909087;29;20430;-72
2021/10/14 12:33:11;;;;;;;1.87;1.40;;;16.80;99.90;;;;;;4910549;29;20469;-71
2021/10/14 12:35:41;;;;;;;5.37;1.70;;;16.90;99.90;;;;;;4909504;29;20421;-71
2021/10/14 12:38:12;;;;;;;2.10;1.70;;;17.00;99.90;;;;;;4910002;29;20435;-74
2021/10/14 12:40:43;;;;;;;4.90;2.77;;;16.90;99.90;;;;;;4906167;29;20481;-75
2021/10/14 12:43:20;;;;;;;6.00;2.33;;;16.90;99.90;;;;;;4910680;29;21256;-75
2021/10/14 12:51:18;;;;;;;5.77;1.93;;;17.30;99.90;;;;;;4906154;29;20209;-74
2021/10/14 12:53:46;;;;;;;6.20;1.83;;;17.40;99.90;;;;;;4905750;29;20423;-74
2021/10/14 12:56:14;;;;;;;3.67;1.60;;;17.40;99.90;;;;;;4907977;29;20806;-73
2021/10/14 12:58:41;;;;;;;3.67;1.80;;;17.20;99.90;;;;;;4909606;29;20422;-73
2021/10/14 13:01:12;;;;;;;1.63;1.10;;;17.20;99.90;;;;;;4907574;29;20453;-73
2021/10/14 13:03:38;;;;;;;3.80;1.47;;;17.10;99.90;;;;;;4908996;29;20770;-73
2021/10/14 13:06:04;;;;;;;4.10;1.70;;;16.90;99.90;;;;;;4911394;29;20477;-74
2021/10/14 13:08:35;;;;;;;2.50;1.13;;;16.70;99.90;;;;;;4890883;29;20470;-75
2021/10/14 13:11:06;;;;;;;2.77;1.57;;;16.60;99.90;;;;;;4906128;29;20830;-75
2021/10/14 13:13:32;;;;;;;3.07;1.40;;;16.50;99.90;;;;;;4910393;29;20486;-73
2021/10/14 13:15:59;;;;;;;2.93;1.70;;;16.60;99.90;;;;;;4909674;29;20418;-75
2021/10/14 13:18:25;;;;;;;2.67;1.93;;;16.50;99.90;;;;;;4913448;29;20190;-74
2021/10/14 13:20:53;;;;;;;3.00;1.73;;;16.50;99.90;;;;;;4913713;29;20801;-75
2021/10/14 13:23:19;;;;;;;2.80;1.60;;;16.50;99.90;;;;;;4915172;29;20186;-74
2021/10/14 13:25:46;;;;;;;1.80;1.30;;;16.60;99.90;;;;;;4915196;29;20505;-74
2021/10/14 13:28:11;;;;;;;1.63;1.43;;;16.60;99.90;;;;;;4913336;29;20224;-73
2021/10/14 13:30:37;;;;;;;1.83;1.07;;;16.50;99.90;;;;;;4914294;29;20488;-73
2021/10/14 13:33:02;;;;;;;1.10;1.00;;;16.50;99.90;;;;;;4913344;29;20201;-75
2021/10/14 13:35:28;;;;;;;4.93;1.23;;;16.50;99.90;;;;;;4913722;29;20229;-75
2021/10/14 13:37:54;;;;;;;1.60;1.03;;;16.40;99.90;;;;;;4913532;29;20186;-74
2021/10/14 13:40:21;;;;;;;1.87;1.20;;;16.40;99.90;;;;;;4913558;29;20201;-74
2021/10/14 13:42:50;;;;;;;2.80;1.10;;;16.20;99.90;;;;;;4907663;29;20931;-74
2021/10/14 13:45:16;;;;;;;1.43;1.07;;;16.20;99.90;;;;;;4913608;29;20430;-74
2021/10/14 13:47:43;;;;;;;4.60;1.23;;;16.20;99.90;;;;;;4909378;29;20477;-74
2021/10/14 13:50:10;;;;;;;1.83;1.20;;;16.10;99.90;;;;;;4911404;29;20433;-74
2021/10/14 13:52:36;;;;;;;1.33;1.00;;;16.00;99.90;;;;;;4911187;29;20442;-74
2021/10/14 13:55:05;;;;;;;2.00;1.23;;;15.90;99.90;;;;;;4913575;29;20421;-74
2021/10/14 13:57:32;;;;;;;2.90;1.00;;;15.90;99.90;;;;;;4914313;29;20437;-74
2021/10/14 13:59:58;;;;;;;4.50;1.10;;;15.90;99.90;;;;;;4912166;29;20414;-74
2021/10/14 14:02:24;;;;;;;1.77;1.17;;;15.90;99.90;;;;;;4911625;29;20473;-73
2021/10/14 14:04:50;;;;;;;5.50;1.17;;;15.90;99.90;;;;;;4911153;29;20417;-74
2021/10/14 14:07:16;;;;;;;1.47;1.27;;;15.90;99.90;;;;;;4912089;29;20842;-74
2021/10/14 14:09:41;;;;;;;1.10;1.00;;;15.90;99.90;;;;;;4910712;29;20186;-74
2021/10/14 14:12:07;;;;;;;2.60;1.10;;;15.80;99.90;;;;;;4912052;29;20210;-74
2021/10/14 14:14:32;;;;;;;2.13;1.40;;;15.70;99.90;;;;;;4913517;29;20715;-74
2021/10/14 14:16:58;;;;;;;1.40;1.03;;;15.70;99.90;;;;;;4909578;29;20187;-74
2021/10/14 14:19:24;;;;;;;6.50;1.47;;;15.60;99.90;;;;;;4911376;29;20318;-73
2021/10/14 14:21:50;;;;;;;2.60;1.20;;;15.50;99.90;;;;;;4913219;29;20210;-74
2021/10/14 14:24:15;;;;;;;3.17;1.23;;;15.50;99.90;;;;;;4910841;29;20465;-73
2021/10/14 14:26:41;;;;;;;2.40;1.40;;;15.40;99.90;;;;;;4911425;29;20658;-73
2021/10/14 14:29:06;;;;;;;1.30;1.20;;;15.30;99.90;;;;;;4910656;29;20226;-74
2021/10/14 14:31:32;;;;;;;2.37;1.20;;;15.30;99.90;;;;;;4910966;29;20253;-73
2021/10/14 14:33:57;;;;;;;4.23;1.70;;;15.20;99.90;;;;;;4927319;29;20232;-72
2021/10/14 14:36:25;;;;;;;1.50;1.43;;;15.10;99.90;;;;;;4913297;29;20301;-74
2021/10/14 14:38:51;;;;;;;4.57;1.50;;;15.20;99.90;;;;;;4911462;29;20225;-74
2021/10/14 14:41:17;;;;;;;1.80;1.33;;;15.10;99.90;;;;;;4909514;29;20478;-74
2021/10/14 14:43:42;;;;;;;2.50;1.47;;;15.00;99.90;;;;;;4905047;29;20190;-74
2021/10/14 14:46:14;;;;;;;5.43;1.10;;;15.00;99.90;;;;;;4903587;29;20209;-73
2021/10/14 14:48:40;;;;;;;12.03;1.43;;;15.10;99.90;;;;;;4906755;29;20274;-74
2021/10/14 14:51:08;;;;;;;2.47;1.03;;;15.00;99.90;;;;;;4910175;29;20501;-74
2021/10/14 14:53:35;;;;;;;1.93;0.90;;;15.00;99.90;;;;;;4907442;29;20530;-74
2021/10/14 14:56:00;;;;;;;3.77;1.20;;;14.90;99.90;;;;;;4910500;29;20445;-74
2021/10/14 14:58:26;;;;;;;4.57;1.40;;;14.90;99.90;;;;;;4912439;29;20462;-74
2021/10/14 15:00:51;;;;;;;1.30;1.10;;;14.80;99.90;;;;;;4907997;29;20703;-73
2021/10/14 15:03:17;;;;;;;3.03;0.83;;;14.70;99.90;;;;;;4909847;29;20200;-74
2021/10/14 15:05:42;;;;;;;1.30;1.07;;;14.70;99.90;;;;;;4909174;29;20185;-74
2021/10/14 15:08:08;;;;;;;1.73;1.17;;;14.70;99.90;;;;;;4908520;29;20214;-75
2021/10/14 15:10:34;;;;;;;1.27;1.17;;;14.50;99.90;;;;;;4894071;29;20178;-74
2021/10/14 15:12:59;;;;;;;1.50;1.40;;;14.50;99.90;;;;;;4912150;29;20630;-74
2021/10/14 15:15:25;;;;;;;2.33;1.00;;;14.40;99.90;;;;;;4913557;29;20607;-74
2021/10/14 15:17:50;;;;;;;3.23;1.70;;;14.40;99.90;;;;;;4912947;29;20188;-73
2021/10/14 15:20:17;;;;;;;5.13;1.13;;;14.40;99.90;;;;;;4909546;29;20197;-74
2021/10/14 15:22:42;;;;;;;1.77;1.43;;;14.30;99.90;;;;;;4910283;29;20206;-75
2021/10/14 15:25:08;;;;;;;1.30;1.20;;;14.30;99.90;;;;;;4911369;29;20857;-74
2021/10/14 15:27:34;;;;;;;4.20;1.07;;;14.30;99.90;;;;;;4910043;29;20318;-74
2021/10/14 15:29:59;;;;;;;1.93;1.07;;;14.20;99.90;;;;;;4912074;29;20192;-74
2021/10/14 15:32:25;;;;;;;4.17;1.43;;;14.20;99.90;;;;;;4911826;29;20218;-75
2021/10/14 15:34:51;;;;;;;6.67;2.03;;;14.20;99.90;;;;;;4903530;29;20187;-74
2021/10/14 15:37:20;;;;;;;6.60;1.53;;;14.20;99.90;;;;;;4911927;29;20648;-74
2021/10/14 15:39:47;;;;;;;2.50;1.50;;;14.20;99.90;;;;;;4912120;29;20547;-74
2021/10/14 15:42:14;;;;;;;7.73;1.80;;;14.10;99.90;;;;;;4911564;29;20457;-74
2021/10/14 15:44:40;;;;;;;4.47;1.27;;;14.10;99.90;;;;;;4907411;29;20434;-74
2021/10/14 15:47:06;;;;;;;3.67;2.00;;;14.00;99.90;;;;;;4911292;29;20465;-74
2021/10/14 15:49:31;;;;;;;7.30;3.83;;;14.00;99.90;;;;;;4908428;29;20188;-73
2021/10/14 15:51:57;;;;;;;1.70;1.30;;;13.90;99.90;;;;;;4908193;29;20521;-73
2021/10/14 15:54:22;;;;;;;5.13;1.40;;;13.90;99.90;;;;;;4913904;29;20204;-74
2021/10/14 15:56:48;;;;;;;2.27;1.30;;;13.80;99.90;;;;;;4917689;29;20189;-74
2021/10/14 15:59:13;;;;;;;3.17;1.40;;;13.70;99.90;;;;;;4913154;29;20705;-74
2021/10/14 16:01:39;;;;;;;1.40;1.30;;;13.60;99.90;;;;;;4910010;29;20277;-73
2021/10/14 16:04:05;;;;;;;1.40;1.30;;;13.60;99.90;;;;;;4911163;29;20196;-73
2021/10/14 16:06:34;;;;;;;3.40;1.90;;;13.50;99.90;;;;;;4911107;29;20221;-74
2021/10/14 16:09:00;;;;;;;5.17;1.30;;;13.40;99.90;;;;;;4911666;29;20182;-73
2021/10/14 16:11:26;;;;;;;2.10;1.73;;;13.30;99.90;;;;;;4911207;29;20438;-73
2021/10/14 16:13:52;;;;;;;4.60;1.87;;;13.30;99.90;;;;;;4911979;29;20418;-74
2021/10/14 16:16:17;;;;;;;5.17;2.00;;;13.20;99.90;;;;;;4911401;29;20858;-73
2021/10/14 16:18:43;;;;;;;6.33;2.47;;;13.10;99.90;;;;;;4922555;29;20695;-74
2021/10/14 16:21:09;;;;;;;4.17;2.07;;;13.00;99.90;;;;;;4910355;29;20689;-73
2021/10/14 16:23:34;;;;;;;5.40;2.87;;;12.80;99.90;;;;;;4909947;29;20190;-73
2021/10/14 16:26:01;;;;;;;5.23;2.40;;;12.60;99.90;;;;;;4910641;29;20489;-74
2021/10/14 16:28:27;;;;;;;5.10;2.10;;;12.40;99.90;;;;;;4910984;29;20202;-71
2021/10/14 16:30:59;;;;;;;5.03;2.20;;;12.20;99.90;;;;;;4911729;29;20461;-74
2021/10/14 16:35:51;;;;;;;6.97;1.90;;;11.90;99.90;;;;;;4913221;29;20478;-73
2021/10/14 16:38:16;;;;;;;4.70;2.03;;;11.70;99.90;;;;;;4915319;29;20218;-73
2021/10/14 16:40:42;;;;;;;2.53;1.73;;;11.60;99.90;;;;;;4916697;29;20222;-73
2021/10/14 16:43:08;;;;;;;3.13;1.50;;;11.50;99.90;;;;;;4914872;29;20671;-73
2021/10/14 16:45:33;;;;;;;7.33;2.07;;;11.30;99.90;;;;;;4914965;29;20190;-73
2021/10/14 16:47:59;;;;;;;7.73;2.33;;;11.20;99.90;;;;;;4915709;29;20230;-73
2021/10/14 16:50:25;;;;;;;2.13;1.53;;;11.10;99.90;;;;;;4914849;29;20189;-73
2021/10/14 16:52:50;;;;;;;2.43;2.23;;;11.00;99.90;;;;;;4914482;29;20297;-73
2021/10/14 16:55:20;;;;;;;6.10;1.83;;;10.90;99.90;;;;;;4915128;29;20481;-73
2021/10/14 16:57:46;;;;;;;3.70;2.03;;;10.80;99.90;;;;;;4913374;29;20218;-73
2021/10/14 17:00:16;;;;;;;3.90;3.03;;;10.70;99.90;;;;;;4914620;29;20931;-73
2021/10/14 17:02:41;;;;;;;4.07;3.13;;;10.60;99.90;;;;;;4915434;29;20540;-75
2021/10/14 17:05:08;;;;;;;3.10;2.80;;;10.50;99.90;;;;;;4914719;29;20520;-73
2021/10/14 17:07:34;;;;;;;3.50;3.20;;;10.40;99.90;;;;;;4915211;29;20209;-73
2021/10/14 17:10:03;;;;;;;5.40;3.07;;;10.40;99.90;;;;;;4914427;29;20439;-74
2021/10/14 17:12:30;;;;;;;3.80;3.07;;;10.20;99.90;;;;;;4913859;29;20450;-73
2021/10/14 17:14:55;;;;;;;4.63;4.23;;;10.10;99.90;;;;;;4912576;29;20425;-73
2021/10/14 17:17:21;;;;;;;6.17;4.80;;;10.00;99.90;;;;;;4913005;29;20437;-73
2021/10/14 17:19:56;;;;;;;8.33;3.57;;;9.90;99.90;;;;;;4912500;29;20219;-73
2021/10/14 17:23:16;;;;;;;7.10;3.70;;;9.80;99.90;;;;;;4911665;29;20294;-73
2021/10/14 17:38:58;;;;;;;4.37;3.93;;;9.20;99.90;;;;;;4913161;29;20424;-73
2021/10/14 17:41:26;;;;;;;5.73;4.67;;;9.20;99.90;;;;;;4912543;29;20223;-73
2021/10/14 17:44:00;;;;;;;8.50;3.80;;;9.10;99.90;;;;;;4912435;29;20406;-73